createdAt,value
2022-08-26T00:02:12.683Z,3.17
2022-08-26T00:04:41.134Z,3.67
2022-08-26T00:07:09.050Z,3.20
2022-08-26T00:09:37.285Z,3.03
2022-08-26T00:12:09.557Z,3.87
2022-08-26T00:14:40.454Z,3.67
2022-08-26T00:17:08.768Z,3.70
2022-08-26T00:19:37.352Z,3.80
2022-08-26T00:22:06.023Z,3.40
2022-08-26T00:24:34.442Z,3.67
2022-08-26T00:27:02.359Z,3.72
2022-08-26T00:29:32.041Z,3.40
2022-08-26T00:32:06.564Z,3.72
2022-08-26T00:34:34.832Z,3.20
2022-08-26T00:37:02.662Z,3.90
2022-08-26T00:39:32.160Z,3.47
2022-08-26T00:42:00.536Z,3.25
2022-08-26T00:44:28.241Z,3.85
2022-08-26T00:47:02.772Z,3.67
2022-08-26T00:49:43.829Z,3.55
2022-08-26T00:52:19.728Z,3.85
2022-08-26T00:54:56.609Z,3.72
2022-08-26T00:57:25.532Z,3.50
2022-08-26T00:59:58.455Z,4.47
2022-08-26T01:02:27.224Z,4.53
2022-08-26T01:05:00.827Z,3.65
2022-08-26T01:07:32.669Z,3.87
2022-08-26T01:10:06.758Z,3.53
2022-08-26T01:12:42.490Z,4.00
2022-08-26T01:15:15.488Z,4.47
2022-08-26T01:17:43.875Z,4.10
2022-08-26T01:20:31.990Z,4.22
2022-08-26T01:23:03.393Z,4.32
2022-08-26T01:25:34.336Z,4.57
2022-08-26T01:28:06.549Z,4.60
2022-08-26T01:30:35.729Z,4.75
2022-08-26T01:33:06.893Z,4.82
2022-08-26T01:35:34.843Z,4.05
2022-08-26T01:38:04.189Z,4.50
2022-08-26T01:40:37.316Z,4.75
2022-08-26T01:43:09.662Z,4.78
2022-08-26T01:45:40.581Z,4.65
2022-08-26T01:48:14.553Z,4.70
2022-08-26T01:50:45.151Z,4.57
2022-08-26T01:53:17.145Z,5.93
2022-08-26T01:55:49.133Z,5.00
2022-08-26T01:58:22.836Z,4.97
2022-08-26T02:00:52.287Z,4.35
2022-08-26T02:03:22.370Z,4.30
2022-08-26T02:06:00.700Z,4.20
2022-08-26T02:08:36.005Z,4.75
2022-08-26T02:11:04.793Z,4.80
2022-08-26T02:13:38.153Z,5.05
2022-08-26T02:16:08.402Z,5.35
2022-08-26T02:18:40.280Z,4.22
2022-08-26T02:21:10.102Z,3.45
2022-08-26T02:23:38.224Z,3.70
2022-08-26T02:26:17.932Z,3.83
2022-08-26T02:29:27.603Z,4.15
2022-08-26T02:31:56.010Z,4.25
2022-08-26T02:34:32.007Z,3.72
2022-08-26T02:37:02.358Z,3.80
2022-08-26T02:39:32.695Z,4.35
2022-08-26T02:42:00.548Z,3.70
2022-08-26T02:44:29.091Z,4.07
2022-08-26T02:46:57.500Z,3.80
2022-08-26T02:49:26.978Z,4.15
2022-08-26T02:51:54.680Z,4.70
2022-08-26T02:54:22.999Z,3.97
2022-08-26T02:56:51.526Z,4.18
2022-08-26T02:59:19.254Z,3.87
2022-08-26T03:01:55.926Z,4.07
2022-08-26T03:04:25.886Z,3.83
2022-08-26T03:06:55.592Z,3.97
2022-08-26T03:09:24.458Z,4.05
2022-08-26T03:11:52.414Z,3.78
2022-08-26T03:14:21.013Z,3.53
2022-08-26T03:16:50.946Z,3.50
2022-08-26T03:19:19.175Z,3.90
2022-08-26T03:21:47.962Z,3.62
2022-08-26T03:24:17.612Z,3.87
2022-08-26T03:26:52.743Z,3.90
2022-08-26T03:29:41.669Z,3.60
2022-08-26T03:32:10.073Z,3.95
2022-08-26T03:34:38.744Z,4.05
2022-08-26T03:37:06.578Z,3.58
2022-08-26T03:39:34.679Z,4.40
2022-08-26T03:42:02.703Z,3.53
2022-08-26T03:44:30.545Z,3.80
2022-08-26T03:46:58.275Z,3.75
2022-08-26T03:49:28.892Z,4.07
2022-08-26T03:51:56.729Z,4.25
2022-08-26T03:54:24.531Z,3.67
2022-08-26T03:56:52.776Z,4.00
2022-08-26T03:59:21.014Z,4.80
2022-08-26T04:01:49.006Z,4.18
2022-08-26T04:04:17.284Z,3.90
2022-08-26T04:06:45.192Z,3.42
2022-08-26T04:09:20.894Z,3.80
2022-08-26T04:11:50.733Z,3.80
2022-08-26T04:14:22.668Z,3.37
2022-08-26T04:16:52.235Z,3.50
2022-08-26T04:19:21.176Z,3.85
2022-08-26T04:21:53.282Z,3.50
2022-08-26T04:24:24.654Z,3.33
2022-08-26T04:26:52.867Z,3.80
2022-08-26T04:29:26.368Z,3.65
2022-08-26T04:31:55.965Z,4.05
2022-08-26T04:34:27.268Z,3.37
2022-08-26T04:36:57.749Z,4.15
2022-08-26T04:39:27.691Z,4.00
2022-08-26T04:41:57.870Z,3.70
2022-08-26T04:44:29.185Z,4.20
2022-08-26T04:46:58.562Z,3.90
2022-08-26T04:49:27.656Z,3.40
2022-08-26T04:51:55.397Z,3.60
2022-08-26T04:54:23.754Z,3.55
2022-08-26T04:56:54.245Z,3.70
2022-08-26T04:59:22.030Z,3.60
2022-08-26T05:01:53.303Z,3.97
2022-08-26T05:04:21.475Z,3.62
2022-08-26T05:06:50.111Z,3.62
2022-08-26T05:09:21.486Z,3.67
2022-08-26T05:11:52.158Z,3.90
2022-08-26T05:16:48.095Z,3.95
2022-08-26T05:19:19.194Z,3.80
2022-08-26T05:21:48.727Z,3.90
2022-08-26T05:24:17.829Z,3.70
2022-08-26T05:26:47.280Z,3.97
2022-08-26T05:29:17.043Z,4.20
2022-08-26T05:31:44.713Z,3.80
2022-08-26T05:34:13.139Z,3.97
2022-08-26T05:36:41.294Z,3.70
2022-08-26T05:39:10.611Z,3.55
2022-08-26T05:41:41.355Z,3.77
2022-08-26T05:46:40.424Z,3.92
2022-08-26T05:49:12.520Z,3.62
2022-08-26T05:51:45.244Z,3.30
2022-08-26T05:54:14.941Z,3.80
2022-08-26T05:56:53.269Z,3.50
2022-08-26T05:59:24.214Z,3.20
2022-08-26T06:01:55.202Z,3.80
2022-08-26T06:06:58.262Z,3.50
2022-08-26T06:09:26.993Z,3.60
2022-08-26T06:11:55.987Z,3.83
2022-08-26T06:14:23.818Z,2.80
2022-08-26T06:16:52.062Z,3.40
2022-08-26T06:19:21.645Z,2.95
2022-08-26T06:21:53.988Z,3.62
2022-08-26T06:24:41.520Z,3.20
2022-08-26T06:27:13.772Z,3.67
2022-08-26T06:29:41.962Z,3.10
2022-08-26T06:32:09.663Z,3.45
2022-08-26T06:34:37.495Z,3.15
2022-08-26T06:37:06.248Z,3.72
2022-08-26T06:39:34.446Z,4.37
2022-08-26T06:42:06.080Z,3.75
2022-08-26T06:44:34.839Z,3.10
2022-08-26T06:47:02.592Z,3.47
2022-08-26T06:49:30.430Z,3.17
2022-08-26T06:51:58.932Z,3.28
2022-08-26T06:54:32.254Z,3.28
2022-08-26T06:57:01.200Z,2.95
2022-08-26T06:59:31.247Z,3.17
2022-08-26T07:01:59.165Z,3.30
2022-08-26T07:04:28.137Z,3.22
2022-08-26T07:06:56.570Z,3.40
2022-08-26T07:09:28.179Z,3.28
2022-08-26T07:11:56.679Z,3.30
2022-08-26T07:14:26.178Z,3.08
2022-08-26T07:16:54.972Z,3.80
2022-08-26T07:19:30.386Z,3.10
2022-08-26T07:22:02.277Z,3.25
2022-08-26T07:24:33.433Z,2.90
2022-08-26T07:27:06.416Z,3.12
2022-08-26T07:29:36.198Z,3.03
2022-08-26T07:32:05.233Z,3.15
2022-08-26T07:34:33.481Z,2.80
2022-08-26T07:37:02.003Z,3.08
2022-08-26T07:39:31.438Z,2.95
2022-08-26T07:42:08.038Z,3.05
2022-08-26T07:44:37.634Z,3.25
2022-08-26T07:47:24.041Z,3.25
2022-08-26T07:49:56.201Z,3.67
2022-08-26T07:52:27.201Z,3.25
2022-08-26T07:55:01.452Z,2.97
2022-08-26T07:57:30.495Z,3.03
2022-08-26T07:59:59.793Z,3.08
2022-08-26T08:02:29.421Z,2.75
2022-08-26T08:04:58.531Z,2.58
2022-08-26T08:07:45.107Z,2.95
2022-08-26T08:10:17.717Z,2.60
2022-08-26T08:12:47.096Z,2.65
2022-08-26T08:15:17.117Z,3.30
2022-08-26T08:17:44.880Z,2.60
2022-08-26T08:20:14.575Z,3.10
2022-08-26T08:25:12.471Z,2.72
2022-08-26T08:27:42.230Z,2.90
2022-08-26T08:30:10.926Z,3.15
2022-08-26T08:32:43.796Z,2.70
2022-08-26T08:35:17.284Z,2.80
2022-08-26T08:37:45.478Z,2.87
2022-08-26T08:40:19.028Z,2.90
2022-08-26T08:43:11.400Z,2.30
2022-08-26T08:45:57.920Z,2.90
2022-08-26T08:48:51.361Z,2.70
2022-08-26T08:51:46.013Z,2.83
2022-08-26T08:54:14.540Z,2.42
2022-08-26T08:56:50.014Z,2.50
2022-08-26T08:59:32.888Z,2.35
2022-08-26T09:02:21.371Z,3.00
2022-08-26T09:05:25.190Z,2.55
2022-08-26T09:08:02.664Z,2.70
2022-08-26T09:10:30.335Z,2.50
2022-08-26T09:13:00.073Z,2.83
2022-08-26T09:15:49.850Z,2.30
2022-08-26T09:18:46.174Z,2.47
2022-08-26T09:21:17.922Z,2.30
2022-08-26T09:23:49.690Z,2.33
2022-08-26T09:26:28.740Z,2.22
2022-08-26T09:29:04.154Z,2.40
2022-08-26T09:31:37.696Z,2.20
2022-08-26T09:34:17.882Z,2.50
2022-08-26T09:36:53.509Z,2.20
2022-08-26T09:39:28.011Z,2.62
2022-08-26T09:42:03.566Z,2.22
2022-08-26T09:44:31.873Z,2.45
2022-08-26T09:47:05.237Z,2.47
2022-08-26T09:49:39.189Z,2.50
2022-08-26T09:52:14.736Z,2.10
2022-08-26T09:54:46.036Z,2.72
2022-08-26T09:57:16.797Z,2.33
2022-08-26T09:59:45.397Z,2.20
2022-08-26T10:02:34.060Z,2.20
2022-08-26T10:05:09.659Z,2.33
2022-08-26T10:07:51.075Z,2.37
2022-08-26T10:10:25.177Z,2.08
2022-08-26T10:13:03.483Z,2.33
2022-08-26T10:15:41.799Z,2.20
2022-08-26T10:18:30.727Z,2.22
2022-08-26T10:21:07.744Z,2.50
2022-08-26T10:23:43.526Z,2.28
2022-08-26T10:26:19.424Z,2.17
2022-08-26T10:28:52.756Z,2.22
2022-08-26T10:31:27.739Z,2.28
2022-08-26T10:33:58.879Z,2.33
2022-08-26T10:37:15.065Z,2.47
2022-08-26T10:39:42.715Z,2.35
2022-08-26T10:42:22.275Z,2.37
2022-08-26T10:44:58.679Z,2.30
2022-08-26T10:48:01.309Z,2.30
2022-08-26T10:50:41.614Z,2.35
2022-08-26T10:53:34.633Z,2.42
2022-08-26T10:56:06.296Z,2.30
2022-08-26T10:59:00.380Z,2.35
2022-08-26T11:01:47.149Z,2.95
2022-08-26T11:04:34.980Z,2.80
2022-08-26T11:07:41.937Z,2.70
2022-08-26T11:10:22.624Z,2.50
2022-08-26T11:13:03.617Z,2.42
2022-08-26T11:15:32.369Z,2.60
2022-08-26T11:18:08.075Z,2.30
2022-08-26T11:20:41.952Z,2.50
2022-08-26T11:23:13.084Z,2.10
2022-08-26T11:25:57.154Z,2.12
2022-08-26T11:28:44.905Z,2.33
2022-08-26T11:31:19.119Z,2.20
2022-08-26T11:33:51.061Z,2.47
2022-08-26T11:36:37.776Z,2.15
2022-08-26T11:39:36.941Z,2.25
2022-08-26T11:42:28.612Z,2.45
2022-08-26T11:44:58.254Z,2.35
2022-08-26T11:47:32.331Z,2.35
2022-08-26T11:50:23.547Z,2.50
2022-08-26T11:53:06.399Z,2.30
2022-08-26T11:55:43.622Z,2.40
2022-08-26T11:58:14.487Z,2.42
2022-08-26T12:01:00.492Z,2.22
2022-08-26T12:03:40.361Z,2.42
2022-08-26T12:06:23.339Z,2.78
2022-08-26T12:08:53.689Z,2.50
2022-08-26T12:11:24.897Z,2.15
2022-08-26T12:13:57.620Z,2.37
2022-08-26T12:16:27.934Z,2.30
2022-08-26T12:18:56.093Z,2.33
2022-08-26T12:21:29.741Z,2.37
2022-08-26T12:24:04.123Z,2.20
2022-08-26T12:26:35.898Z,2.20
2022-08-26T12:29:20.363Z,2.58
2022-08-26T12:32:17.771Z,4.30
2022-08-26T12:34:49.162Z,2.08
2022-08-26T12:37:18.887Z,2.30
2022-08-26T12:39:49.113Z,1.83
2022-08-26T12:45:06.678Z,2.03
2022-08-26T12:47:44.111Z,2.15
2022-08-26T12:50:23.913Z,2.20
2022-08-26T12:53:00.730Z,2.00
2022-08-26T12:55:31.717Z,2.00
2022-08-26T12:58:18.514Z,2.12
2022-08-26T13:00:50.470Z,2.42
2022-08-26T13:03:46.094Z,2.15
2022-08-26T13:06:23.317Z,2.08
2022-08-26T13:08:54.463Z,2.40
2022-08-26T13:11:40.768Z,4.93
2022-08-26T13:14:21.121Z,3.90
2022-08-26T13:16:53.601Z,3.40
2022-08-26T13:19:24.129Z,2.10
2022-08-26T13:22:01.570Z,1.87
2022-08-26T13:24:35.220Z,2.17
2022-08-26T13:27:05.147Z,2.30
2022-08-26T13:29:33.060Z,2.83
2022-08-26T13:32:01.454Z,2.33
2022-08-26T13:34:30.388Z,2.55
2022-08-26T13:36:58.551Z,2.00
2022-08-26T13:39:27.014Z,1.95
2022-08-26T13:41:55.061Z,2.10
2022-08-26T13:44:22.843Z,2.28
2022-08-26T13:46:50.535Z,2.00
2022-08-26T13:49:18.453Z,2.08
2022-08-26T13:51:46.197Z,2.22
2022-08-26T13:54:13.917Z,2.08
2022-08-26T13:56:41.865Z,2.22
2022-08-26T13:59:10.046Z,2.90
2022-08-26T14:01:39.883Z,2.33
2022-08-26T14:04:11.519Z,2.00
2022-08-26T14:06:39.205Z,2.65
2022-08-26T14:09:06.913Z,2.22
2022-08-26T14:11:41.235Z,1.85
2022-08-26T14:14:22.049Z,2.30
2022-08-26T14:16:58.928Z,2.17
2022-08-26T14:19:30.053Z,1.90
2022-08-26T14:22:00.816Z,2.22
2022-08-26T14:24:29.318Z,2.12
2022-08-26T14:26:57.083Z,1.95
2022-08-26T14:29:25.099Z,2.10
2022-08-26T14:31:54.102Z,1.70
2022-08-26T14:34:21.894Z,2.40
2022-08-26T14:36:49.859Z,2.10
2022-08-26T14:39:17.535Z,2.40
2022-08-26T14:41:56.420Z,2.05
2022-08-26T14:44:28.210Z,2.08
2022-08-26T14:46:56.390Z,1.90
2022-08-26T14:49:27.337Z,1.87
2022-08-26T14:51:55.715Z,1.70
2022-08-26T14:54:23.476Z,2.30
2022-08-26T14:57:00.468Z,2.33
2022-08-26T14:59:31.988Z,2.00
2022-08-26T15:02:00.932Z,1.87
2022-08-26T15:04:28.817Z,2.12
2022-08-26T15:06:59.003Z,2.30
2022-08-26T15:09:29.454Z,2.17
2022-08-26T15:11:57.675Z,2.37
2022-08-26T15:14:27.653Z,1.90
2022-08-26T15:17:00.654Z,2.10
2022-08-26T15:19:28.623Z,2.20
2022-08-26T15:21:56.513Z,2.37
2022-08-26T15:24:26.286Z,2.35
2022-08-26T15:26:54.367Z,2.58
2022-08-26T15:29:24.004Z,1.85
2022-08-26T15:34:22.973Z,2.00
2022-08-26T15:36:50.713Z,2.08
2022-08-26T15:39:19.721Z,2.17
2022-08-26T15:41:47.660Z,1.87
2022-08-26T15:44:17.024Z,1.95
2022-08-26T15:46:45.364Z,2.03
2022-08-26T15:49:18.458Z,2.00
2022-08-26T15:51:50.465Z,1.95
2022-08-26T15:54:22.364Z,2.75
2022-08-26T15:56:52.553Z,2.37
2022-08-26T15:59:21.795Z,2.05
2022-08-26T16:01:49.875Z,2.23
2022-08-26T16:04:18.762Z,2.12
2022-08-26T16:06:50.243Z,2.03
2022-08-26T16:09:24.338Z,2.03
2022-08-26T16:11:56.997Z,1.85
2022-08-26T16:14:26.609Z,2.17
2022-08-26T16:16:58.015Z,2.05
2022-08-26T16:19:27.589Z,2.22
2022-08-26T16:21:55.321Z,1.87
2022-08-26T16:24:27.177Z,1.73
2022-08-26T16:26:58.363Z,2.00
2022-08-26T16:29:26.704Z,1.80
2022-08-26T16:31:54.836Z,1.75
2022-08-26T16:34:23.040Z,1.65
2022-08-26T16:36:51.053Z,1.80
2022-08-26T16:39:18.719Z,2.10
2022-08-26T16:41:46.796Z,2.10
2022-08-26T16:44:14.557Z,1.77
2022-08-26T16:46:42.434Z,2.03
2022-08-26T16:49:10.487Z,1.90
2022-08-26T16:51:38.578Z,1.92
2022-08-26T16:54:07.880Z,1.83
2022-08-26T16:56:37.100Z,2.00
2022-08-26T16:59:07.765Z,1.90
2022-08-26T17:01:35.656Z,2.60
2022-08-26T17:04:03.964Z,2.20
2022-08-26T17:06:31.714Z,2.10
2022-08-26T17:09:00.598Z,2.25
2022-08-26T17:11:28.624Z,2.30
2022-08-26T17:13:56.983Z,2.45
2022-08-26T17:16:27.031Z,2.37
2022-08-26T17:18:56.875Z,2.50
2022-08-26T17:21:26.067Z,2.12
2022-08-26T17:23:54.211Z,2.10
2022-08-26T17:26:22.639Z,1.90
2022-08-26T17:28:51.204Z,2.22
2022-08-26T17:31:19.558Z,2.12
2022-08-26T17:33:53.250Z,2.17
2022-08-26T17:36:28.116Z,2.20
2022-08-26T17:38:57.584Z,2.35
2022-08-26T17:41:25.909Z,2.87
2022-08-26T17:43:53.669Z,2.10
2022-08-26T17:46:22.187Z,2.33
2022-08-26T17:48:49.971Z,2.65
2022-08-26T17:51:19.515Z,2.50
2022-08-26T17:53:48.659Z,2.85
2022-08-26T17:56:19.095Z,3.03
2022-08-26T17:58:48.052Z,3.00
2022-08-26T18:01:26.191Z,3.08
2022-08-26T18:04:00.126Z,2.83
2022-08-26T18:06:30.650Z,2.90
2022-08-26T18:08:59.899Z,3.67
2022-08-26T18:11:33.690Z,2.80
2022-08-26T18:14:02.184Z,4.18
2022-08-26T18:16:31.743Z,4.00
2022-08-26T18:18:59.909Z,3.72
2022-08-26T18:21:28.110Z,4.60
2022-08-26T18:23:56.540Z,4.25
2022-08-26T18:26:30.087Z,4.72
2022-08-26T18:28:58.834Z,4.78
2022-08-26T18:31:27.221Z,3.62
2022-08-26T18:33:55.231Z,4.18
2022-08-26T18:36:26.887Z,3.37
2022-08-26T18:38:55.634Z,3.80
2022-08-26T18:41:25.966Z,3.30
2022-08-26T18:43:54.160Z,3.60
2022-08-26T18:46:27.100Z,3.80
2022-08-26T18:48:57.097Z,4.28
2022-08-26T18:51:29.661Z,3.80
2022-08-26T18:53:59.674Z,4.68
2022-08-26T18:56:28.577Z,5.22
2022-08-26T18:58:56.295Z,3.92
2022-08-26T19:01:27.387Z,3.87
2022-08-26T19:03:57.686Z,4.97
2022-08-26T19:08:53.986Z,4.97
2022-08-26T19:11:32.135Z,5.75
2022-08-26T19:14:02.450Z,5.57
2022-08-26T19:16:30.867Z,5.07
2022-08-26T19:19:00.710Z,5.55
2022-08-26T19:21:29.857Z,5.95
2022-08-26T19:23:59.275Z,5.68
2022-08-26T19:26:29.348Z,5.87
2022-08-26T19:31:25.290Z,5.97
2022-08-26T19:33:53.094Z,6.32
2022-08-26T19:36:24.871Z,5.82
2022-08-26T19:38:53.594Z,5.72
2022-08-26T19:41:34.158Z,5.45
2022-08-26T19:44:11.189Z,5.53
2022-08-26T19:49:12.193Z,5.57
2022-08-26T19:51:40.343Z,4.78
2022-08-26T19:54:08.139Z,5.15
2022-08-26T19:56:36.609Z,5.25
2022-08-26T19:59:04.737Z,6.03
2022-08-26T20:01:32.487Z,5.82
2022-08-26T20:04:00.831Z,5.25
2022-08-26T20:06:28.627Z,4.90
2022-08-26T20:08:56.474Z,5.78
2022-08-26T20:11:24.600Z,4.68
2022-08-26T20:13:52.340Z,5.10
2022-08-26T20:16:20.123Z,4.70
2022-08-26T20:19:06.983Z,4.35
2022-08-26T20:21:38.207Z,4.20
2022-08-26T20:24:12.682Z,4.30
2022-08-26T20:26:46.141Z,3.95
2022-08-26T20:29:17.306Z,3.33
2022-08-26T20:31:46.622Z,4.10
2022-08-26T20:34:18.520Z,4.20
2022-08-26T20:36:47.862Z,3.50
2022-08-26T20:39:17.948Z,4.32
2022-08-26T20:41:45.735Z,3.87
2022-08-26T20:44:13.916Z,3.70
2022-08-26T20:46:42.040Z,3.35
2022-08-26T20:49:10.058Z,3.67
2022-08-26T20:51:37.818Z,3.53
2022-08-26T20:54:07.122Z,3.40
2022-08-26T20:56:35.688Z,3.85
2022-08-26T20:59:05.400Z,3.25
2022-08-26T21:01:36.180Z,3.55
2022-08-26T21:06:34.031Z,3.22
2022-08-26T21:09:03.615Z,3.20
2022-08-26T21:11:32.096Z,2.97
2022-08-26T21:14:06.780Z,2.95
2022-08-26T21:16:44.767Z,2.97
2022-08-26T21:19:15.057Z,3.60
2022-08-26T21:21:43.171Z,3.20
2022-08-26T21:24:10.995Z,2.53
2022-08-26T21:26:39.378Z,3.08
2022-08-26T21:29:09.891Z,2.67
2022-08-26T21:31:44.901Z,3.10
2022-08-26T21:34:18.732Z,2.72
2022-08-26T21:36:47.978Z,3.40
2022-08-26T21:39:16.444Z,3.40
2022-08-26T21:41:45.439Z,3.83
2022-08-26T21:44:15.386Z,3.90
2022-08-26T21:46:45.169Z,3.70
2022-08-26T21:49:15.749Z,3.33
2022-08-26T21:51:46.437Z,3.97
2022-08-26T21:56:47.154Z,3.58
2022-08-26T21:59:18.078Z,3.20
2022-08-26T22:01:46.279Z,3.78
2022-08-26T22:04:14.835Z,4.05
2022-08-26T22:06:48.848Z,3.60
2022-08-26T22:09:21.625Z,3.67
2022-08-26T22:11:50.201Z,3.53
2022-08-26T22:14:22.078Z,3.75
2022-08-26T22:16:50.990Z,3.83
2022-08-26T22:19:20.638Z,3.87
2022-08-26T22:21:53.898Z,4.30
2022-08-26T22:24:24.194Z,4.32
2022-08-26T22:26:52.619Z,4.40
2022-08-26T22:29:20.914Z,3.75
2022-08-26T22:31:49.064Z,3.60
2022-08-26T22:34:17.529Z,3.05
2022-08-26T22:36:47.314Z,4.28
2022-08-26T22:39:19.366Z,3.20
2022-08-26T22:41:48.589Z,3.10
2022-08-26T22:44:18.453Z,3.05
2022-08-26T22:46:47.447Z,3.40
2022-08-26T22:49:16.498Z,3.00
2022-08-26T22:51:46.294Z,2.80
2022-08-26T22:54:14.961Z,2.80
2022-08-26T22:56:44.852Z,3.10
2022-08-26T22:59:13.202Z,2.70
2022-08-26T23:01:42.992Z,3.20
2022-08-26T23:04:11.592Z,2.90
2022-08-26T23:06:42.680Z,3.25
2022-08-26T23:09:10.876Z,3.10
2022-08-26T23:11:42.983Z,3.08
2022-08-26T23:14:11.295Z,3.08
2022-08-26T23:16:41.972Z,2.85
2022-08-26T23:19:11.536Z,3.47
2022-08-26T23:21:40.425Z,2.87
2022-08-26T23:24:09.593Z,3.00
2022-08-26T23:26:39.140Z,3.15
2022-08-26T23:29:09.424Z,3.13
2022-08-26T23:31:39.042Z,3.05
2022-08-26T23:34:26.098Z,3.03
2022-08-26T23:36:57.035Z,2.90
2022-08-26T23:39:25.759Z,2.80
2022-08-26T23:41:53.503Z,3.12
2022-08-26T23:44:21.327Z,2.70
2022-08-26T23:46:49.380Z,2.55
2022-08-26T23:49:17.082Z,2.78
2022-08-26T23:52:03.710Z,2.75
2022-08-26T23:54:32.783Z,2.75
2022-08-26T23:57:00.659Z,2.53
2022-08-26T23:59:28.464Z,2.87
